createdAt,value
2017-06-05T00:02:22.422Z,89.60
2017-06-05T00:04:50.586Z,89.40
2017-06-05T00:07:18.475Z,90.20
2017-06-05T00:09:45.982Z,90.20
2017-06-05T00:12:14.484Z,90.30
2017-06-05T00:14:41.954Z,90.40
2017-06-05T00:17:09.834Z,90.20
2017-06-05T00:19:37.677Z,90.20
2017-06-05T00:22:05.550Z,91.00
2017-06-05T00:24:33.416Z,91.10
2017-06-05T00:27:01.333Z,91.10
2017-06-05T00:29:28.803Z,91.10
2017-06-05T00:31:56.279Z,91.10
2017-06-05T00:34:24.182Z,91.30
2017-06-05T00:36:51.678Z,91.30
2017-06-05T00:39:19.142Z,91.30
2017-06-05T00:41:47.495Z,91.30
2017-06-05T00:44:14.962Z,91.30
2017-06-05T00:46:42.433Z,91.40
2017-06-05T00:49:10.354Z,91.30
2017-06-05T00:51:37.827Z,91.30
2017-06-05T00:54:05.293Z,91.50
2017-06-05T00:56:32.953Z,91.30
2017-06-05T00:59:00.442Z,91.50
2017-06-05T01:01:28.305Z,91.70
2017-06-05T01:03:55.853Z,91.70
2017-06-05T01:06:23.734Z,91.70
2017-06-05T01:08:51.206Z,91.70
2017-06-05T01:11:18.714Z,91.70
2017-06-05T01:13:46.187Z,91.80
2017-06-05T01:16:14.058Z,91.80
2017-06-05T01:18:41.967Z,91.90
2017-06-05T01:21:09.433Z,91.90
2017-06-05T01:23:36.903Z,91.80
2017-06-05T01:26:04.596Z,91.80
2017-06-05T01:28:32.087Z,91.90
2017-06-05T01:30:59.578Z,91.90
2017-06-05T01:33:27.080Z,91.90
2017-06-05T01:35:54.554Z,91.90
2017-06-05T01:38:22.025Z,91.90
2017-06-05T01:40:49.534Z,92.00
2017-06-05T01:43:17.398Z,92.00
2017-06-05T01:45:44.887Z,92.00
2017-06-05T01:48:12.714Z,91.90
2017-06-05T01:50:40.211Z,91.90
2017-06-05T01:53:07.677Z,92.00
2017-06-05T01:55:35.379Z,91.90
2017-06-05T01:58:02.845Z,92.10
2017-06-05T02:00:30.711Z,92.10
2017-06-05T02:02:58.595Z,92.10
2017-06-05T02:05:26.169Z,92.10
2017-06-05T02:07:53.643Z,92.00
2017-06-05T02:10:21.441Z,92.10
2017-06-05T02:12:49.311Z,92.20
2017-06-05T02:15:17.424Z,92.20
2017-06-05T02:17:45.650Z,92.20
2017-06-05T02:20:13.518Z,92.30
2017-06-05T02:22:41.025Z,92.30
2017-06-05T02:25:08.540Z,92.30
2017-06-05T02:27:36.031Z,92.30
2017-06-05T02:30:03.506Z,92.30
2017-06-05T02:32:30.999Z,92.40
2017-06-05T02:34:58.932Z,92.60
2017-06-05T02:37:26.413Z,92.50
2017-06-05T02:39:54.090Z,92.60
2017-06-05T02:42:21.954Z,92.70
2017-06-05T02:44:49.826Z,92.70
2017-06-05T02:47:17.337Z,92.70
2017-06-05T02:49:44.802Z,92.70
2017-06-05T02:52:12.279Z,92.70
2017-06-05T02:54:40.167Z,92.70
2017-06-05T02:57:07.637Z,92.70
2017-06-05T02:59:35.125Z,92.70
2017-06-05T03:02:02.918Z,92.60
2017-06-05T03:04:30.782Z,92.70
2017-06-05T03:06:58.902Z,92.70
2017-06-05T03:09:27.039Z,92.70
2017-06-05T03:11:54.519Z,92.70
2017-06-05T03:14:22.016Z,92.60
2017-06-05T03:16:51.122Z,92.70
2017-06-05T03:19:18.587Z,92.70
2017-06-05T03:21:46.451Z,92.60
2017-06-05T03:24:13.970Z,92.60
2017-06-05T03:26:42.115Z,92.70
2017-06-05T03:29:09.586Z,92.60
2017-06-05T03:31:37.289Z,92.60
2017-06-05T03:34:05.174Z,92.60
2017-06-05T03:36:32.647Z,92.60
2017-06-05T03:39:00.443Z,92.70
2017-06-05T03:41:27.934Z,92.60
2017-06-05T03:43:55.807Z,92.50
2017-06-05T03:46:23.686Z,92.50
2017-06-05T03:48:51.156Z,92.50
2017-06-05T03:51:18.635Z,92.50
2017-06-05T03:53:46.141Z,92.40
2017-06-05T03:56:14.006Z,92.40
2017-06-05T03:58:41.880Z,92.40
2017-06-05T04:01:09.622Z,92.40
2017-06-05T04:03:37.499Z,92.30
2017-06-05T04:06:05.368Z,92.30
2017-06-05T04:08:33.214Z,92.40
2017-06-05T04:11:00.690Z,92.40
2017-06-05T04:13:28.164Z,92.20
2017-06-05T04:15:55.691Z,92.20
2017-06-05T04:18:23.561Z,92.10
2017-06-05T04:20:51.051Z,92.10
2017-06-05T04:23:18.906Z,92.00
2017-06-05T04:25:46.407Z,92.00
2017-06-05T04:28:14.291Z,91.90
2017-06-05T04:30:42.192Z,92.00
2017-06-05T04:33:09.687Z,92.00
2017-06-05T04:35:37.178Z,92.00
2017-06-05T04:38:05.325Z,91.70
2017-06-05T04:40:32.806Z,91.60
2017-06-05T04:43:04.748Z,91.60
2017-06-05T04:45:32.273Z,91.60
2017-06-05T04:47:59.766Z,91.40
2017-06-05T04:50:27.634Z,91.00
2017-06-05T04:52:55.154Z,91.00
2017-06-05T04:55:22.643Z,91.20
2017-06-05T04:57:50.513Z,90.60
2017-06-05T05:00:18.677Z,91.10
2017-06-05T05:02:46.542Z,90.80
2017-06-05T05:05:14.408Z,90.90
2017-06-05T05:07:42.331Z,90.80
2017-06-05T05:10:09.799Z,90.80
2017-06-05T05:12:37.269Z,90.40
2017-06-05T05:15:05.041Z,89.90
2017-06-05T05:17:32.516Z,90.10
2017-06-05T05:19:59.998Z,90.00
2017-06-05T05:22:27.507Z,89.50
2017-06-05T05:24:54.975Z,89.20
2017-06-05T05:27:22.465Z,88.80
2017-06-05T05:29:49.974Z,88.90
2017-06-05T05:32:17.446Z,89.10
2017-06-05T05:34:45.309Z,88.40
2017-06-05T05:37:13.165Z,88.40
2017-06-05T05:39:41.052Z,88.10
2017-06-05T05:42:08.537Z,88.10
2017-06-05T05:44:36.251Z,87.80
2017-06-05T05:47:03.948Z,87.90
2017-06-05T05:49:31.417Z,87.20
2017-06-05T05:51:58.936Z,87.40
2017-06-05T05:54:26.430Z,87.50
2017-06-05T05:56:53.926Z,87.10
2017-06-05T05:59:22.019Z,86.70
2017-06-05T06:01:49.888Z,86.90
2017-06-05T06:04:17.371Z,86.80
2017-06-05T06:06:44.893Z,86.50
2017-06-05T06:09:12.773Z,85.20
2017-06-05T06:11:40.249Z,85.20
2017-06-05T06:14:07.778Z,85.00
2017-06-05T06:16:35.256Z,85.10
2017-06-05T06:19:02.738Z,84.10
2017-06-05T06:21:30.426Z,83.30
2017-06-05T06:23:58.289Z,83.00
2017-06-05T06:26:25.755Z,83.00
2017-06-05T06:28:54.307Z,82.90
2017-06-05T06:31:22.135Z,82.90
2017-06-05T06:33:49.632Z,83.40
2017-06-05T06:36:17.133Z,82.40
2017-06-05T06:38:44.607Z,82.20
2017-06-05T06:41:12.075Z,82.00
2017-06-05T06:43:39.691Z,80.40
2017-06-05T06:46:07.559Z,79.00
2017-06-05T06:48:35.318Z,79.00
2017-06-05T06:51:03.479Z,77.60
2017-06-05T06:53:31.346Z,78.00
2017-06-05T06:55:58.838Z,78.00
2017-06-05T06:58:26.351Z,77.50
2017-06-05T07:00:54.974Z,78.20
2017-06-05T07:03:22.445Z,75.70
2017-06-05T07:05:49.966Z,75.10
2017-06-05T07:08:17.442Z,74.80
2017-06-05T07:10:45.331Z,74.70
2017-06-05T07:13:13.954Z,75.80
2017-06-05T07:15:41.833Z,74.00
2017-06-05T07:18:09.305Z,74.00
2017-06-05T07:20:36.821Z,73.30
2017-06-05T07:23:04.978Z,71.90
2017-06-05T07:25:32.493Z,71.90
2017-06-05T07:28:00.325Z,72.50
2017-06-05T07:30:28.200Z,71.70
2017-06-05T07:32:55.966Z,71.70
2017-06-05T07:35:24.576Z,72.20
2017-06-05T07:37:52.085Z,70.80
2017-06-05T07:40:19.953Z,70.50
2017-06-05T07:42:48.118Z,71.90
2017-06-05T07:45:16.001Z,70.40
2017-06-05T07:47:43.488Z,70.40
2017-06-05T07:50:11.291Z,70.50
2017-06-05T07:52:39.666Z,69.60
2017-06-05T07:55:07.141Z,69.60
2017-06-05T07:57:35.255Z,68.50
2017-06-05T08:00:02.967Z,68.50
2017-06-05T08:02:30.696Z,68.30
2017-06-05T08:04:58.244Z,68.80
2017-06-05T08:07:25.772Z,67.20
2017-06-05T08:09:53.248Z,67.90
2017-06-05T08:12:20.791Z,69.10
2017-06-05T08:14:48.286Z,68.70
2017-06-05T08:17:15.786Z,68.00
2017-06-05T08:19:43.696Z,66.20
2017-06-05T08:22:11.181Z,66.20
2017-06-05T08:24:39.043Z,66.90
2017-06-05T08:27:07.283Z,65.60
2017-06-05T08:29:34.962Z,65.60
2017-06-05T08:32:02.435Z,65.50
2017-06-05T08:34:29.957Z,64.80
2017-06-05T08:36:57.557Z,64.80
2017-06-05T08:39:26.540Z,66.70
2017-06-05T08:41:54.837Z,64.30
2017-06-05T08:44:23.387Z,64.30
2017-06-05T08:46:52.496Z,62.40
2017-06-05T08:49:19.982Z,63.90
2017-06-05T08:51:47.892Z,63.80
2017-06-05T08:54:15.391Z,64.10
2017-06-05T08:56:43.818Z,62.50
2017-06-05T08:59:11.285Z,60.00
2017-06-05T09:01:38.773Z,62.00
2017-06-05T09:04:07.849Z,61.30
2017-06-05T09:06:36.485Z,61.30
2017-06-05T09:09:03.974Z,61.10
2017-06-05T09:11:31.479Z,61.40
2017-06-05T09:13:58.968Z,60.80
2017-06-05T09:16:26.460Z,62.10
2017-06-05T09:18:53.971Z,62.80
2017-06-05T09:21:21.472Z,62.30
2017-06-05T09:23:54.607Z,61.30
2017-06-05T09:26:22.450Z,62.40
2017-06-05T09:28:49.938Z,62.00
2017-06-05T09:31:17.557Z,60.80
2017-06-05T09:33:45.030Z,59.70
2017-06-05T09:36:12.524Z,60.70
2017-06-05T09:38:40.333Z,58.30
2017-06-05T09:41:08.131Z,59.40
2017-06-05T09:43:35.636Z,60.00
2017-06-05T09:46:03.815Z,57.90
2017-06-05T09:48:31.682Z,57.70
2017-06-05T09:50:59.282Z,57.70
2017-06-05T09:53:26.827Z,56.50
2017-06-05T09:55:54.324Z,57.90
2017-06-05T09:58:21.831Z,57.10
2017-06-05T10:00:50.250Z,57.10
2017-06-05T10:03:17.740Z,58.40
2017-06-05T10:05:45.254Z,58.00
2017-06-05T10:08:13.957Z,57.20
2017-06-05T10:10:41.475Z,58.50
2017-06-05T10:13:08.968Z,55.40
2017-06-05T10:15:36.488Z,54.70
2017-06-05T10:18:03.976Z,54.60
2017-06-05T10:20:31.465Z,54.10
2017-06-05T10:22:58.992Z,54.10
2017-06-05T10:25:26.514Z,55.30
2017-06-05T10:27:54.002Z,55.40
2017-06-05T10:30:21.691Z,54.80
2017-06-05T10:32:49.762Z,53.00
2017-06-05T10:35:17.265Z,53.10
2017-06-05T10:37:45.761Z,53.20
2017-06-05T10:40:13.538Z,53.00
2017-06-05T10:42:41.007Z,53.80
2017-06-05T10:45:09.015Z,51.60
2017-06-05T10:47:37.050Z,51.60
2017-06-05T10:50:04.529Z,52.70
2017-06-05T10:52:33.218Z,50.60
2017-06-05T10:55:00.719Z,51.80
2017-06-05T10:57:28.239Z,50.70
2017-06-05T10:59:56.320Z,50.40
2017-06-05T11:02:23.804Z,50.60
2017-06-05T11:04:51.327Z,49.00
2017-06-05T11:07:18.838Z,50.10
2017-06-05T11:09:46.326Z,51.00
2017-06-05T11:12:15.546Z,50.10
2017-06-05T11:14:43.321Z,47.40
2017-06-05T11:17:10.832Z,47.90
2017-06-05T11:19:39.535Z,48.40
2017-06-05T11:22:07.783Z,50.30
2017-06-05T11:24:35.272Z,48.90
2017-06-05T11:27:02.755Z,49.50
2017-06-05T11:29:30.614Z,50.00
2017-06-05T11:31:58.134Z,48.30
2017-06-05T11:34:25.625Z,47.40
2017-06-05T11:36:53.144Z,47.60
2017-06-05T11:39:20.646Z,47.20
2017-06-05T11:41:48.134Z,48.40
2017-06-05T11:44:15.654Z,47.80
2017-06-05T11:46:43.149Z,47.10
2017-06-05T11:49:11.029Z,49.20
2017-06-05T11:51:38.789Z,49.30
2017-06-05T11:54:06.300Z,47.60
2017-06-05T11:56:33.788Z,48.10
2017-06-05T11:59:01.941Z,46.80
2017-06-05T12:01:29.690Z,46.80
2017-06-05T12:03:57.587Z,45.50
2017-06-05T12:06:25.642Z,46.90
2017-06-05T12:08:55.399Z,44.80
2017-06-05T12:11:22.879Z,44.80
2017-06-05T12:13:50.671Z,46.50
2017-06-05T12:16:18.556Z,46.80
2017-06-05T12:18:46.034Z,46.80
2017-06-05T12:21:13.822Z,47.00
2017-06-05T12:23:41.310Z,46.90
2017-06-05T12:26:09.187Z,46.20
2017-06-05T12:28:36.719Z,46.20
2017-06-05T12:31:04.302Z,47.70
2017-06-05T12:33:32.178Z,46.40
2017-06-05T12:36:00.026Z,46.40
2017-06-05T12:38:27.911Z,46.90
2017-06-05T12:40:55.403Z,47.00
2017-06-05T12:43:22.920Z,47.50
2017-06-05T12:45:50.404Z,46.00
2017-06-05T12:48:17.891Z,46.90
2017-06-05T12:50:45.613Z,47.60
2017-06-05T12:53:13.103Z,46.70
2017-06-05T12:55:41.034Z,44.40
2017-06-05T12:58:08.572Z,44.40
2017-06-05T13:00:36.434Z,44.50
2017-06-05T13:03:04.196Z,46.80
2017-06-05T13:05:31.688Z,46.30
2017-06-05T13:07:59.469Z,45.60
2017-06-05T13:10:26.982Z,46.40
2017-06-05T13:12:54.490Z,44.70
2017-06-05T13:15:22.406Z,44.90
2017-06-05T13:17:50.257Z,44.90
2017-06-05T13:20:18.044Z,45.80
2017-06-05T13:22:45.523Z,44.70
2017-06-05T13:25:13.474Z,44.80
2017-06-05T13:27:40.947Z,43.80
2017-06-05T13:30:08.488Z,43.00
2017-06-05T13:32:36.443Z,42.30
2017-06-05T13:35:03.920Z,43.70
2017-06-05T13:37:31.391Z,40.50
2017-06-05T13:39:58.912Z,39.50
2017-06-05T13:42:26.403Z,40.60
2017-06-05T13:44:54.777Z,42.00
2017-06-05T13:47:23.293Z,40.90
2017-06-05T13:49:51.188Z,41.50
2017-06-05T13:52:18.711Z,41.50
2017-06-05T13:54:46.490Z,41.90
2017-06-05T13:57:13.995Z,39.30
2017-06-05T13:59:42.662Z,40.30
2017-06-05T14:02:10.167Z,40.30
2017-06-05T14:04:39.178Z,41.60
2017-06-05T14:07:06.686Z,41.60
2017-06-05T14:09:34.174Z,39.90
2017-06-05T14:12:02.050Z,41.30
2017-06-05T14:14:29.917Z,41.30
2017-06-05T14:16:57.418Z,40.60
2017-06-05T14:19:24.903Z,39.00
2017-06-05T14:21:52.816Z,39.90
2017-06-05T14:24:20.316Z,39.90
2017-06-05T14:26:47.827Z,40.50
2017-06-05T14:29:15.367Z,42.20
2017-06-05T14:31:42.850Z,42.50
2017-06-05T14:34:10.338Z,40.70
2017-06-05T14:36:37.842Z,41.70
2017-06-05T14:39:05.317Z,42.20
2017-06-05T14:41:33.080Z,42.60
2017-06-05T14:44:00.608Z,39.40
2017-06-05T14:46:28.092Z,40.30
2017-06-05T14:48:55.583Z,40.20
2017-06-05T14:51:23.725Z,41.80
2017-06-05T14:53:51.216Z,41.80
2017-06-05T14:56:19.114Z,41.70
2017-06-05T14:58:46.836Z,41.70
2017-06-05T15:01:15.070Z,42.50
2017-06-05T15:03:42.559Z,42.40
2017-06-05T15:06:10.097Z,42.10
2017-06-05T15:08:37.611Z,44.30
2017-06-05T15:11:05.102Z,43.50
2017-06-05T15:13:32.943Z,45.00
2017-06-05T15:16:04.582Z,45.90
2017-06-05T15:18:32.463Z,45.00
2017-06-05T15:21:00.582Z,45.00
2017-06-05T15:23:30.158Z,45.40
2017-06-05T15:25:57.630Z,45.50
2017-06-05T15:28:25.156Z,45.00
2017-06-05T15:30:52.786Z,44.00
2017-06-05T15:33:20.662Z,44.80
2017-06-05T15:35:48.557Z,44.80
2017-06-05T15:38:17.050Z,44.80
2017-06-05T15:40:44.557Z,45.10
2017-06-05T15:43:12.514Z,44.20
2017-06-05T15:45:40.093Z,44.30
2017-06-05T15:48:07.586Z,43.30
2017-06-05T15:50:35.391Z,43.80
2017-06-05T15:53:02.887Z,44.10
2017-06-05T15:55:30.374Z,43.40
2017-06-05T15:57:58.242Z,43.30
2017-06-05T16:00:26.116Z,42.70
2017-06-05T16:02:53.600Z,42.40
2017-06-05T16:05:21.188Z,43.10
2017-06-05T16:07:48.957Z,44.20
2017-06-05T16:10:16.688Z,45.70
2017-06-05T16:12:44.231Z,46.30
2017-06-05T16:15:12.126Z,44.60
2017-06-05T16:17:39.644Z,44.60
2017-06-05T16:20:07.192Z,43.00
2017-06-05T16:22:34.689Z,43.30
2017-06-05T16:25:02.213Z,44.00
2017-06-05T16:27:30.258Z,43.50
2017-06-05T16:29:57.952Z,43.60
2017-06-05T16:32:25.845Z,43.30
2017-06-05T16:34:53.720Z,43.30
2017-06-05T16:37:21.209Z,43.00
2017-06-05T16:39:48.695Z,43.00
2017-06-05T16:42:17.902Z,43.00
2017-06-05T16:44:45.416Z,43.60
2017-06-05T16:47:12.928Z,43.20
2017-06-05T16:49:40.704Z,43.80
2017-06-05T16:52:08.182Z,43.50
2017-06-05T16:54:35.679Z,42.60
2017-06-05T16:57:03.181Z,42.60
2017-06-05T16:59:30.959Z,43.50
2017-06-05T17:01:58.445Z,43.70
2017-06-05T17:04:26.408Z,44.50
2017-06-05T17:06:54.534Z,45.30
2017-06-05T17:09:22.080Z,44.50
2017-06-05T17:11:49.985Z,43.80
2017-06-05T17:14:17.493Z,44.10
2017-06-05T17:16:45.485Z,44.50
2017-06-05T17:19:13.290Z,44.60
2017-06-05T17:21:41.328Z,44.40
2017-06-05T17:24:08.832Z,45.00
2017-06-05T17:26:37.699Z,45.10
2017-06-05T17:29:06.589Z,44.40
2017-06-05T17:31:34.568Z,44.40
2017-06-05T17:34:04.629Z,44.20
2017-06-05T17:36:33.775Z,42.80
2017-06-05T17:39:02.421Z,42.80
2017-06-05T17:41:31.001Z,42.30
2017-06-05T17:43:59.831Z,42.50
2017-06-05T17:46:28.634Z,43.80
2017-06-05T17:48:58.101Z,44.30
2017-06-05T17:51:26.744Z,44.20
2017-06-05T17:53:56.407Z,45.30
2017-06-05T17:56:25.343Z,45.30
2017-06-05T17:58:54.417Z,45.30
2017-06-05T18:01:23.358Z,45.30
2017-06-05T18:03:51.913Z,45.80
2017-06-05T18:06:20.430Z,45.30
2017-06-05T18:08:49.472Z,45.90
2017-06-05T18:11:18.618Z,44.80
2017-06-05T18:13:47.138Z,44.80
2017-06-05T18:16:16.240Z,44.10
2017-06-05T18:18:45.547Z,44.20
2017-06-05T18:21:14.207Z,44.30
2017-06-05T18:23:42.853Z,44.80
2017-06-05T18:26:11.450Z,45.60
2017-06-05T18:28:40.733Z,45.90
2017-06-05T18:31:09.522Z,46.40
2017-06-05T18:33:38.724Z,46.00
2017-06-05T18:36:07.492Z,47.10
2017-06-05T18:38:36.232Z,47.30
2017-06-05T18:41:04.941Z,47.30
2017-06-05T18:43:34.049Z,47.50
2017-06-05T18:46:03.031Z,47.50
2017-06-05T18:48:32.295Z,47.80
2017-06-05T18:51:00.940Z,48.30
2017-06-05T18:53:33.383Z,48.60
2017-06-05T18:56:04.666Z,48.70
2017-06-05T18:58:34.429Z,49.10
2017-06-05T19:01:04.037Z,49.20
2017-06-05T19:03:33.850Z,49.50
2017-06-05T19:06:03.369Z,49.70
2017-06-05T19:08:33.017Z,50.20
2017-06-05T19:11:02.418Z,50.10
2017-06-05T19:13:31.020Z,50.80
2017-06-05T19:16:01.082Z,51.10
2017-06-05T19:18:30.590Z,51.10
2017-06-05T19:21:00.558Z,51.20
2017-06-05T19:23:30.860Z,51.60
2017-06-05T19:25:59.981Z,52.20
2017-06-05T19:28:28.680Z,52.20
2017-06-05T19:30:57.736Z,52.30
2017-06-05T19:33:26.419Z,52.30
2017-06-05T19:35:55.974Z,52.50
2017-06-05T19:38:24.535Z,52.80
2017-06-05T19:40:54.843Z,53.30
2017-06-05T19:43:24.063Z,52.90
2017-06-05T19:45:53.688Z,52.70
2017-06-05T19:48:22.855Z,52.70
2017-06-05T19:50:51.706Z,52.70
2017-06-05T19:53:20.380Z,52.60
2017-06-05T19:55:49.304Z,52.80
2017-06-05T19:58:19.344Z,53.00
2017-06-05T20:00:48.060Z,53.30
2017-06-05T20:03:16.871Z,53.80
2017-06-05T20:08:20.387Z,55.10
2017-06-05T20:10:49.195Z,55.30
2017-06-05T20:13:18.120Z,56.40
2017-06-05T20:15:48.149Z,56.40
2017-06-05T20:18:16.843Z,57.30
2017-06-05T20:20:46.637Z,57.20
2017-06-05T20:23:17.601Z,56.80
2017-06-05T20:25:46.704Z,57.40
2017-06-05T20:28:16.301Z,57.50
2017-06-05T20:30:46.178Z,58.10
2017-06-05T20:33:15.833Z,58.80
2017-06-05T20:35:45.034Z,59.90
2017-06-05T20:38:13.699Z,59.90
2017-06-05T20:40:42.892Z,59.90
2017-06-05T20:43:12.368Z,60.10
2017-06-05T20:45:42.364Z,60.10
2017-06-05T20:48:11.288Z,59.90
2017-06-05T20:50:39.965Z,59.80
2017-06-05T20:53:08.571Z,59.50
2017-06-05T20:55:37.474Z,59.70
2017-06-05T20:58:06.495Z,59.60
2017-06-05T21:00:36.008Z,59.60
2017-06-05T21:03:04.764Z,59.60
2017-06-05T21:05:33.484Z,59.60
2017-06-05T21:08:01.991Z,60.10
2017-06-05T21:10:30.780Z,60.20
2017-06-05T21:12:59.540Z,60.50
2017-06-05T21:15:28.242Z,60.50
2017-06-05T21:17:56.941Z,60.40
2017-06-05T21:20:25.449Z,60.60
2017-06-05T21:22:54.937Z,60.70
2017-06-05T21:25:23.389Z,60.70
2017-06-05T21:27:51.694Z,60.90
2017-06-05T21:30:21.190Z,61.20
2017-06-05T21:32:49.260Z,61.40
2017-06-05T21:35:16.826Z,61.40
2017-06-05T21:37:44.484Z,61.60
2017-06-05T21:40:12.126Z,61.60
2017-06-05T21:42:39.605Z,61.80
2017-06-05T21:45:07.471Z,62.00
2017-06-05T21:47:35.081Z,62.10
2017-06-05T21:50:03.316Z,62.50
2017-06-05T21:52:30.855Z,62.50
2017-06-05T21:54:58.449Z,62.70
2017-06-05T21:57:25.924Z,63.50
2017-06-05T21:59:53.411Z,63.90
2017-06-05T22:02:20.924Z,64.40
2017-06-05T22:04:48.397Z,64.80
2017-06-05T22:07:16.263Z,65.20
2017-06-05T22:09:44.333Z,65.50
2017-06-05T22:12:12.209Z,66.00
2017-06-05T22:14:41.973Z,66.60
2017-06-05T22:17:09.866Z,66.60
2017-06-05T22:19:37.742Z,67.70
2017-06-05T22:22:05.542Z,67.70
2017-06-05T22:24:33.257Z,68.20
2017-06-05T22:27:01.126Z,69.00
2017-06-05T22:29:28.621Z,69.00
2017-06-05T22:31:56.136Z,69.20
2017-06-05T22:34:24.006Z,69.90
2017-06-05T22:36:51.878Z,70.20
2017-06-05T22:39:20.386Z,70.40
2017-06-05T22:41:47.860Z,70.40
2017-06-05T22:44:15.348Z,70.80
2017-06-05T22:46:43.259Z,71.60
2017-06-05T22:49:10.726Z,71.60
2017-06-05T22:51:38.486Z,71.70
2017-06-05T22:54:06.213Z,72.50
2017-06-05T22:56:33.706Z,72.90
2017-06-05T22:59:01.197Z,73.20
2017-06-05T23:01:29.114Z,74.10
2017-06-05T23:03:56.605Z,74.10
2017-06-05T23:06:24.106Z,74.50
2017-06-05T23:08:51.996Z,75.50
2017-06-05T23:11:19.484Z,75.50
2017-06-05T23:13:46.977Z,75.60
2017-06-05T23:16:15.150Z,76.10
2017-06-05T23:18:42.637Z,76.10
2017-06-05T23:21:10.104Z,76.60
2017-06-05T23:23:37.769Z,76.40
2017-06-05T23:26:05.261Z,76.80
2017-06-05T23:28:33.344Z,76.50
2017-06-05T23:31:01.243Z,76.80
2017-06-05T23:33:28.810Z,76.80
2017-06-05T23:35:56.300Z,77.10
2017-06-05T23:38:24.500Z,78.10
2017-06-05T23:40:52.376Z,78.50
2017-06-05T23:43:19.872Z,78.50
2017-06-05T23:45:47.492Z,78.80
2017-06-05T23:48:14.973Z,79.10
2017-06-05T23:50:42.455Z,79.10
2017-06-05T23:53:09.954Z,79.10
2017-06-05T23:55:37.442Z,79.50
2017-06-05T23:58:04.918Z,79.80
